Time;durP1;ratioP1;P1;durP2;ratioP2;P2;SDS_P1;SDS_P2;PMS_P1;PMS_P2;Temp;Humidity;BMP_temperature;BMP_pressure;BME280_temperature;BME280_humidity;BME280_pressure;Samples;Min_cycle;Max_cycle;Signal;HPM_P1;HPM_P2
2023/03/11 00:00:22;;;;;;;3.07;1.60;;;4.60;99.70;;;;;;4911824;29;20448;-85
2023/03/11 00:02:58;;;;;;;1.90;1.53;;;4.50;99.60;;;;;;4942272;29;20494;-84
2023/03/11 00:05:44;;;;;;;2.40;1.53;;;4.50;99.50;;;;;;4945148;29;20490;-85
2023/03/11 00:09:01;;;;;;;6.50;1.73;;;4.50;99.50;;;;;;4934093;28;20513;-84
2023/03/11 00:12:04;;;;;;;2.77;1.27;;;4.50;99.70;;;;;;4923893;29;20457;-83
2023/03/11 00:14:40;;;;;;;9.57;1.80;;;4.50;99.70;;;;;;4950742;28;20449;-84
2023/03/11 00:17:37;;;;;;;5.20;1.60;;;4.60;99.60;;;;;;4956675;28;20552;-85
2023/03/11 00:20:38;;;;;;;5.30;1.70;;;4.70;99.40;;;;;;4962475;28;20429;-84
2023/03/11 00:23:22;;;;;;;5.27;2.10;;;4.60;99.20;;;;;;4949605;29;20474;-84
2023/03/11 00:26:18;;;;;;;5.80;1.97;;;4.60;99.10;;;;;;4944609;29;20523;-84
2023/03/11 00:29:28;;;;;;;4.97;1.50;;;4.60;99.20;;;;;;4945083;29;20485;-85
2023/03/11 00:32:41;;;;;;;5.57;1.90;;;4.70;99.40;;;;;;4956562;29;20466;-84
2023/03/11 00:35:31;;;;;;;2.30;1.50;;;4.70;99.50;;;;;;4896870;29;20524;-86
2023/03/11 00:38:25;;;;;;;6.13;1.67;;;4.60;99.60;;;;;;4928428;29;20454;-84
2023/03/11 00:41:12;;;;;;;3.30;1.67;;;4.50;99.80;;;;;;4967538;28;20450;-86
2023/03/11 00:43:51;;;;;;;4.87;1.87;;;4.50;99.90;;;;;;4937981;29;20695;-84
2023/03/11 00:46:31;;;;;;;6.07;2.30;;;4.50;99.90;;;;;;4940906;29;20454;-83
2023/03/11 00:49:19;;;;;;;3.67;1.63;;;4.40;99.90;;;;;;4932130;29;20465;-85
2023/03/11 00:51:59;;;;;;;4.97;1.50;;;4.40;99.90;;;;;;4937868;29;20481;-84
2023/03/11 00:55:11;;;;;;;6.60;1.67;;;4.50;99.90;;;;;;4942143;29;20458;-85
2023/03/11 00:58:08;;;;;;;7.03;2.10;;;4.40;99.90;;;;;;4876129;29;20544;-83
2023/03/11 01:00:44;;;;;;;4.20;1.70;;;4.40;99.90;;;;;;4877932;29;20441;-83
2023/03/11 01:03:28;;;;;;;5.97;1.50;;;4.50;99.90;;;;;;4876887;29;20532;-84
2023/03/11 01:06:11;;;;;;;4.33;1.60;;;4.50;99.90;;;;;;4865995;29;20448;-84
2023/03/11 01:08:55;;;;;;;3.77;1.70;;;4.50;99.90;;;;;;4876962;29;20544;-84
2023/03/11 01:11:50;;;;;;;5.30;1.67;;;4.50;99.90;;;;;;4878313;29;20444;-82
2023/03/11 01:14:23;;;;;;;5.97;2.03;;;4.50;99.90;;;;;;4892686;29;20528;-83
2023/03/11 01:16:52;;;;;;;3.43;1.70;;;4.50;99.90;;;;;;4881445;29;20574;-85
2023/03/11 01:19:22;;;;;;;4.33;1.57;;;4.50;99.90;;;;;;4881528;29;20527;-85
2023/03/11 01:22:22;;;;;;;2.93;1.30;;;4.60;99.90;;;;;;4885699;29;20444;-87
2023/03/11 01:24:57;;;;;;;3.50;1.80;;;4.50;99.90;;;;;;4881181;29;20456;-86
2023/03/11 01:27:43;;;;;;;1.37;1.27;;;4.50;99.90;;;;;;4878338;29;20488;-84
2023/03/11 01:31:18;;;;;;;3.27;1.60;;;4.60;99.90;;;;;;4873149;29;20467;-84
2023/03/11 01:34:14;;;;;;;4.50;1.20;;;4.60;99.90;;;;;;4834173;29;20474;-85
2023/03/11 01:36:51;;;;;;;4.60;1.60;;;4.60;99.80;;;;;;4936844;29;21163;-85
2023/03/11 01:39:29;;;;;;;4.30;1.40;;;4.50;99.70;;;;;;4938703;29;20465;-85
2023/03/11 01:42:15;;;;;;;3.17;1.43;;;4.50;99.70;;;;;;4953889;29;20524;-84
2023/03/11 01:45:46;;;;;;;3.90;1.43;;;4.50;99.70;;;;;;4939617;29;20490;-85
2023/03/11 01:48:29;;;;;;;9.10;1.83;;;4.50;99.60;;;;;;4943021;29;20489;-83
2023/03/11 01:51:43;;;;;;;5.40;2.07;;;4.50;99.50;;;;;;4940423;29;20490;-84
2023/03/11 01:54:50;;;;;;;3.57;1.60;;;4.50;99.50;;;;;;4942592;29;20477;-86
2023/03/11 01:57:42;;;;;;;14.00;1.90;;;4.60;99.60;;;;;;4949161;29;20474;-83
2023/03/11 02:00:23;;;;;;;6.87;1.90;;;4.60;99.60;;;;;;4949119;28;21352;-86
2023/03/11 02:03:12;;;;;;;4.00;1.40;;;4.50;99.40;;;;;;4941540;29;20481;-83
2023/03/11 02:06:40;;;;;;;2.40;1.30;;;4.50;99.30;;;;;;4937754;29;20493;-86
2023/03/11 02:09:30;;;;;;;3.20;1.70;;;4.50;99.20;;;;;;4928167;29;20454;-84
2023/03/11 02:12:33;;;;;;;6.97;1.47;;;4.40;99.10;;;;;;4927841;29;20457;-85
2023/03/11 02:16:00;;;;;;;4.07;2.00;;;4.50;99.10;;;;;;4888144;29;20436;-84
2023/03/11 02:18:45;;;;;;;6.20;2.17;;;4.50;99.00;;;;;;4882686;29;20475;-85
2023/03/11 02:21:56;;;;;;;1.60;1.33;;;4.50;99.00;;;;;;4901906;29;21896;-83
2023/03/11 02:24:54;;;;;;;6.80;1.80;;;4.50;98.90;;;;;;4883859;29;20559;-84
2023/03/11 02:28:12;;;;;;;7.60;1.90;;;4.50;99.00;;;;;;4900599;29;20499;-86
2023/03/11 02:31:01;;;;;;;4.70;2.20;;;4.50;99.00;;;;;;4896528;29;20528;-85
2023/03/11 02:34:09;;;;;;;6.07;2.30;;;4.50;98.80;;;;;;4885057;29;20484;-87
2023/03/11 02:36:48;;;;;;;3.30;1.40;;;4.50;98.70;;;;;;4883018;29;20503;-85
2023/03/11 02:46:28;;;;;;;6.20;1.80;;;4.40;98.30;;;;;;4911161;29;20470;-86
2023/03/11 02:49:43;;;;;;;6.13;2.00;;;4.40;98.30;;;;;;4904470;29;20459;-85
2023/03/11 02:52:30;;;;;;;6.07;2.00;;;4.40;98.20;;;;;;4858854;29;20456;-84
2023/03/11 02:55:26;;;;;;;4.20;1.20;;;4.30;98.00;;;;;;4904870;29;20838;-84
2023/03/11 02:58:24;;;;;;;4.23;1.63;;;4.30;97.80;;;;;;4917194;29;20660;-83
2023/03/11 03:01:40;;;;;;;3.77;1.40;;;4.30;97.70;;;;;;4912102;29;20465;-84
2023/03/11 03:04:27;;;;;;;6.73;1.70;;;4.20;97.40;;;;;;4917853;29;22060;-84
2023/03/11 03:07:44;;;;;;;8.60;1.90;;;4.20;97.30;;;;;;4834365;29;20467;-84
2023/03/11 03:10:47;;;;;;;;;;;;;;;;;;;;;
2023/03/11 03:13:31;;;;;;;4.43;1.33;;;4.10;97.10;;;;;;4828584;29;20480;-85
2023/03/11 03:16:39;;;;;;;12.77;1.90;;;4.10;96.90;;;;;;4817874;29;20480;-83
2023/03/11 03:19:33;;;;;;;3.50;1.33;;;4.10;96.70;;;;;;4837238;29;20466;-82
2023/03/11 03:22:27;;;;;;;;;;;;;;;;;;;;;
2023/03/11 03:25:23;;;;;;;6.80;1.93;;;4.10;96.70;;;;;;4852939;29;20512;-86
2023/03/11 03:27:53;;;;;;;2.90;1.50;;;4.00;96.60;;;;;;4865708;29;20490;-83
2023/03/11 03:30:25;;;;;;;4.07;1.40;;;4.00;96.70;;;;;;4866972;29;20532;-84
2023/03/11 03:33:18;;;;;;;3.97;1.57;;;4.00;96.80;;;;;;4832670;29;20510;-85
2023/03/11 03:36:35;;;;;;;2.40;1.10;;;3.90;96.50;;;;;;4789877;29;20731;-86
2023/03/11 03:40:00;;;;;;;4.33;1.93;;;3.90;96.40;;;;;;4833782;29;20440;-83
2023/03/11 03:42:52;;;;;;;4.30;2.43;;;3.90;96.50;;;;;;4824897;29;20484;-85
2023/03/11 03:46:01;;;;;;;4.77;1.60;;;3.90;96.60;;;;;;4778686;30;20528;-84
2023/03/11 03:49:13;;;;;;;5.90;1.20;;;3.90;96.60;;;;;;4704481;30;20488;-83
2023/03/11 03:52:42;;;;;;;5.13;1.50;;;3.90;96.60;;;;;;4652805;30;20472;-84
2023/03/11 03:55:59;;;;;;;2.67;1.50;;;3.90;96.90;;;;;;4735288;30;20470;-83
2023/03/11 03:59:04;;;;;;;;;;;;;;;;;;;;;
2023/03/11 04:02:22;;;;;;;4.00;1.83;;;3.80;96.60;;;;;;4694811;30;20494;-83
2023/03/11 04:09:56;;;;;;;2.20;1.00;;;3.70;96.30;;;;;;4739818;30;20441;-84
2023/03/11 04:12:49;;;;;;;3.30;1.37;;;3.70;96.30;;;;;;4719745;30;20725;-83
2023/03/11 04:15:47;;;;;;;4.40;1.43;;;3.70;96.30;;;;;;4704127;30;20462;-84
2023/03/11 04:18:55;;;;;;;2.80;1.50;;;3.70;96.20;;;;;;4703148;30;20496;-84
2023/03/11 04:21:40;;;;;;;6.10;1.27;;;3.60;96.00;;;;;;4746133;30;20546;-84
2023/03/11 04:24:58;;;;;;;6.63;2.00;;;3.60;96.00;;;;;;4873426;29;21189;-86
2023/03/11 04:28:12;;;;;;;5.07;1.30;;;3.60;96.00;;;;;;4867812;29;20460;-85
2023/03/11 04:31:02;;;;;;;2.97;1.90;;;3.70;96.00;;;;;;4887672;29;20480;-84
2023/03/11 04:33:59;;;;;;;;;;;;;;;;;;;;;
2023/03/11 04:37:01;;;;;;;6.70;1.70;;;3.60;95.90;;;;;;4884441;29;20480;-85
2023/03/11 04:40:21;;;;;;;5.23;1.20;;;3.70;95.90;;;;;;4927735;29;20458;-83
2023/03/11 04:43:15;;;;;;;3.80;1.30;;;3.70;95.90;;;;;;4934667;29;20445;-85
2023/03/11 04:46:02;;;;;;;3.83;1.20;;;3.70;95.90;;;;;;4937240;29;20547;-83
2023/03/11 04:48:59;;;;;;;2.63;1.30;;;3.70;95.90;;;;;;4924522;29;20490;-85
2023/03/11 04:51:49;;;;;;;6.03;1.87;;;3.70;95.70;;;;;;4951687;29;20481;-85
2023/03/11 04:54:36;;;;;;;6.07;1.67;;;3.60;95.50;;;;;;4958021;28;20482;-84
2023/03/11 04:57:30;;;;;;;3.23;1.10;;;3.60;95.60;;;;;;4921519;29;20473;-86
2023/03/11 05:00:36;;;;;;;4.43;1.70;;;3.60;95.60;;;;;;4939702;29;20446;-86
2023/03/11 05:03:22;;;;;;;3.50;1.43;;;3.60;95.70;;;;;;4940666;29;21025;-83
2023/03/11 05:06:45;;;;;;;;;;;;;;;;;;;;;
2023/03/11 05:10:05;;;;;;;;;;;;;;;;;;;;;
2023/03/11 05:13:10;;;;;;;1.40;1.30;;;3.50;95.60;;;;;;4879755;29;20437;-84
2023/03/11 05:16:28;;;;;;;6.10;2.30;;;3.50;95.60;;;;;;4863022;29;20456;-85
2023/03/11 05:19:36;;;;;;;9.73;1.67;;;3.50;95.70;;;;;;4884006;29;20502;-82
2023/03/11 05:22:26;;;;;;;2.50;1.80;;;3.50;95.70;;;;;;4885421;29;20495;-83
2023/03/11 05:25:50;;;;;;;4.40;1.57;;;3.50;95.60;;;;;;4884847;29;20502;-83
2023/03/11 05:29:11;;;;;;;3.50;1.60;;;3.60;95.70;;;;;;4876128;29;20611;-85
2023/03/11 05:36:01;;;;;;;2.83;1.47;;;3.60;95.70;;;;;;4874137;29;20448;-83
2023/03/11 05:38:59;;;;;;;;;;;;;;;;;;;;;
2023/03/11 05:42:03;;;;;;;2.93;1.50;;;3.60;95.70;;;;;;4886494;29;20528;-84
2023/03/11 05:48:46;;;;;;;6.50;1.83;;;3.50;95.70;;;;;;4918258;29;20513;-85
2023/03/11 05:51:36;;;;;;;5.07;2.80;;;3.50;96.00;;;;;;4911435;29;20458;-84
2023/03/11 05:54:41;;;;;;;5.50;1.83;;;3.60;95.90;;;;;;4913177;29;20459;-84
2023/03/11 05:57:43;;;;;;;8.63;2.27;;;3.60;96.10;;;;;;4820525;29;20510;-84
2023/03/11 06:00:39;;;;;;;3.33;2.40;;;3.60;95.70;;;;;;4831234;29;20475;-86
2023/03/11 06:03:12;;;;;;;3.90;1.73;;;3.60;95.80;;;;;;4832963;29;20467;-83
2023/03/11 06:05:53;;;;;;;3.00;1.57;;;3.60;95.80;;;;;;4778322;29;20470;-85
2023/03/11 06:08:48;;;;;;;4.57;1.53;;;3.60;95.70;;;;;;4751310;30;20531;-85
2023/03/11 06:11:34;;;;;;;9.87;4.33;;;3.60;95.60;;;;;;4750750;30;20524;-84
2023/03/11 06:14:50;;;;;;;3.63;2.50;;;3.70;95.60;;;;;;4764133;30;20564;-86
2023/03/11 06:17:48;;;;;;;2.40;1.70;;;3.60;95.60;;;;;;4753041;30;20866;-86
2023/03/11 06:21:14;;;;;;;;;;;;;;;;;;;;;
2023/03/11 06:24:16;;;;;;;3.93;1.30;;;3.70;95.30;;;;;;4754410;30;20482;-85
2023/03/11 06:27:20;;;;;;;2.13;1.50;;;3.80;95.30;;;;;;4800557;29;20476;-84
2023/03/11 06:32:55;;;;;;;4.13;1.80;;;3.90;95.20;;;;;;5379881;23;20511;-83
2023/03/11 06:42:42;;;;;;;2.67;1.67;;;4.00;94.80;;;;;;5143011;23;20513;-88
2023/03/11 06:46:10;;;;;;;;;;;;;;;;;;;;;
2023/03/11 06:54:58;;;;;;;6.60;1.90;;;4.00;94.40;;;;;;4925515;29;20548;-86
2023/03/11 06:58:04;;;;;;;;;;;;;;;;;;;;;
2023/03/11 07:00:48;;;;;;;4.43;2.03;;;4.10;94.50;;;;;;4849731;29;20476;-85
2023/03/11 07:07:44;;;;;;;;;;;;;;;;;;;;;
2023/03/11 07:18:03;;;;;;;8.30;2.17;;;4.40;94.20;;;;;;4850227;29;20495;-84
2023/03/11 07:20:54;;;;;;;2.40;1.40;;;4.60;93.90;;;;;;4849964;29;20475;-86
2023/03/11 07:23:50;;;;;;;3.90;2.30;;;4.80;93.50;;;;;;4985688;23;20488;-85
2023/03/11 07:27:36;;;;;;;;;;;;;;;;;;;;;
2023/03/11 07:30:45;;;;;;;5.90;1.70;;;5.30;93.00;;;;;;4943502;28;20473;-86
2023/03/11 07:33:48;;;;;;;4.10;2.20;;;6.30;93.30;;;;;;4922067;28;20465;-86
2023/03/11 07:40:02;;;;;;;3.53;2.30;;;10.20;75.70;;;;;;4945548;28;20460;-85
2023/03/11 07:43:42;;;;;;;4.77;2.40;;;11.20;68.20;;;;;;4896147;29;20568;-85
2023/03/11 07:46:53;;;;;;;7.00;2.10;;;11.90;63.90;;;;;;4876596;28;20685;-85
2023/03/11 07:50:08;;;;;;;3.70;2.03;;;12.50;60.10;;;;;;4930803;28;21255;-87
2023/03/11 07:53:16;;;;;;;4.23;2.00;;;12.70;59.00;;;;;;4924397;29;20464;-87
2023/03/11 07:56:30;;;;;;;4.43;1.97;;;13.70;57.10;;;;;;4925996;29;20531;-85
2023/03/11 07:59:05;;;;;;;5.07;2.23;;;15.20;54.30;;;;;;4931853;28;20481;-84
2023/03/11 08:02:09;;;;;;;6.77;2.13;;;16.50;51.60;;;;;;4996378;23;20504;-86
2023/03/11 08:08:03;;;;;;;3.70;2.20;;;13.40;49.70;;;;;;5000960;23;20532;-86
2023/03/11 08:21:34;;;;;;;5.00;2.77;;;7.80;68.70;;;;;;4931108;29;20485;-83
2023/03/11 08:24:05;;;;;;;8.43;2.20;;;7.70;71.10;;;;;;4928480;29;20490;-85
2023/03/11 08:26:57;;;;;;;3.47;2.00;;;7.50;71.80;;;;;;4914320;29;20470;-85
2023/03/11 08:29:36;;;;;;;5.10;1.67;;;7.40;73.20;;;;;;4898683;29;20589;-85
2023/03/11 08:32:30;;;;;;;5.47;2.23;;;7.20;74.20;;;;;;4904451;29;20574;-85
2023/03/11 08:38:04;;;;;;;6.57;2.00;;;6.80;77.40;;;;;;4954339;23;20497;-85
2023/03/11 08:40:41;;;;;;;3.20;2.07;;;6.70;77.00;;;;;;5345660;23;20507;-85
2023/03/11 08:44:17;;;;;;;6.40;1.87;;;6.60;77.50;;;;;;4988994;28;20439;-85
2023/03/11 08:47:02;;;;;;;7.23;2.20;;;6.60;78.40;;;;;;4971779;28;20466;-86
2023/03/11 08:49:57;;;;;;;3.00;1.70;;;6.50;78.70;;;;;;4963377;28;20480;-83
2023/03/11 08:53:17;;;;;;;5.60;1.60;;;6.40;78.70;;;;;;4956299;28;20448;-84
2023/03/11 08:56:11;;;;;;;4.37;1.83;;;6.40;78.80;;;;;;4953485;28;20452;-86
2023/03/11 08:59:07;;;;;;;4.93;1.70;;;6.30;79.10;;;;;;4940106;28;20483;-85
2023/03/11 09:02:18;;;;;;;4.10;1.60;;;6.40;79.40;;;;;;4937402;28;20447;-86
2023/03/11 09:05:51;;;;;;;3.40;1.80;;;6.40;79.70;;;;;;4953368;28;20780;-85
2023/03/11 09:08:59;;;;;;;6.63;1.70;;;6.60;79.50;;;;;;4952238;28;20456;-85
2023/03/11 09:12:16;;;;;;;6.27;1.70;;;6.50;78.40;;;;;;4888666;29;20453;-84
2023/03/11 09:15:33;;;;;;;3.13;2.00;;;6.50;79.10;;;;;;4856127;29;20461;-86
2023/03/11 09:25:41;;;;;;;5.43;1.47;;;6.60;76.60;;;;;;4822029;29;20487;-85
2023/03/11 09:52:55;;;;;;;4.10;1.50;;;7.10;58.00;;;;;;4933742;29;20489;-85
2023/03/11 09:56:07;;;;;;;2.10;1.10;;;7.10;58.80;;;;;;5064787;23;20557;-83
2023/03/11 09:58:59;;;;;;;1.57;0.73;;;7.10;59.90;;;;;;4912034;29;20498;-84
2023/03/11 10:01:34;;;;;;;3.10;0.87;;;7.30;58.00;;;;;;4922631;29;20463;-84
2023/03/11 10:04:20;;;;;;;3.83;1.40;;;7.30;57.00;;;;;;4928248;29;20630;-86
2023/03/11 10:06:58;;;;;;;2.50;0.90;;;7.40;57.30;;;;;;4928006;29;20442;-87
2023/03/11 10:10:02;;;;;;;1.70;0.67;;;7.90;57.90;;;;;;4923097;29;20454;-85
2023/03/11 10:16:17;;;;;;;1.40;0.77;;;9.30;52.50;;;;;;4917249;29;20467;-86
2023/03/11 10:18:57;;;;;;;4.90;1.10;;;8.90;52.80;;;;;;4909066;29;20589;-85
2023/03/11 10:21:51;;;;;;;8.03;1.13;;;10.10;51.80;;;;;;4924113;29;20498;-85
2023/03/11 10:25:22;;;;;;;2.00;1.27;;;11.20;49.90;;;;;;4911120;29;20570;-85
2023/03/11 10:28:35;;;;;;;1.67;1.10;;;12.80;45.00;;;;;;4910215;29;20565;-86
2023/03/11 10:31:36;;;;;;;1.37;0.80;;;13.00;42.20;;;;;;4913865;29;20463;-86
2023/03/11 10:34:53;;;;;;;2.53;1.00;;;13.30;41.40;;;;;;4909505;29;21858;-86
2023/03/11 10:37:50;;;;;;;4.93;1.40;;;13.00;42.10;;;;;;4912191;29;20489;-86
2023/03/11 10:40:34;;;;;;;3.30;0.87;;;12.30;42.90;;;;;;4911037;29;20455;-86
2023/03/11 10:43:45;;;;;;;;;;;;;;;;;;;;;
2023/03/11 10:46:52;;;;;;;2.10;1.23;;;11.10;43.30;;;;;;4921940;29;20558;-86
2023/03/11 10:49:55;;;;;;;1.17;0.70;;;10.60;43.70;;;;;;4924386;29;20871;-85
2023/03/11 10:52:34;;;;;;;3.17;1.73;;;10.00;45.20;;;;;;4918465;29;20449;-85
2023/03/11 11:17:26;;;;;;;;;;;;;;;;;;;;;
2023/03/11 11:28:18;;;;;;;;;;;;;;;;;;;;;
2023/03/11 11:31:47;;;;;;;;;;;;;;;;;;;;;
2023/03/11 11:39:16;;;;;;;;;;;;;;;;;;;;;
2023/03/11 11:51:31;;;;;;;3.37;1.20;;;8.70;51.20;;;;;;4820923;29;20444;-84
2023/03/11 12:06:02;;;;;;;2.67;1.00;;;8.50;51.30;;;;;;4795426;29;20522;-86
2023/03/11 12:15:14;;;;;;;;;;;;;;;;;;;;;
2023/03/11 12:36:26;;;;;;;;;;;;;;;;;;;;;
2023/03/11 12:48:06;;;;;;;4.93;1.27;;;8.20;53.20;;;;;;4882727;29;20470;-83
2023/03/11 13:18:39;;;;;;;3.40;1.40;;;9.10;50.40;;;;;;5038696;23;20504;-84
2023/03/11 13:30:15;;;;;;;3.30;1.60;;;10.30;46.70;;;;;;4847154;29;20439;-86
2023/03/11 13:33:29;;;;;;;6.27;1.13;;;9.60;47.70;;;;;;4824860;29;20478;-86
2023/03/11 13:44:55;;;;;;;3.10;1.10;;;9.40;49.40;;;;;;4718083;30;20479;-89
2023/03/11 13:49:12;;;;;;;1.57;1.47;;;9.70;50.20;;;;;;4743977;30;20471;-86
2023/03/11 13:56:37;;;;;;;2.20;1.00;;;10.10;47.90;;;;;;4775318;29;20440;-85
2023/03/11 14:00:28;;;;;;;1.90;0.97;;;10.30;47.50;;;;;;4797851;29;20450;-85
2023/03/11 14:03:59;;;;;;;3.00;1.20;;;9.80;48.30;;;;;;4795183;29;20443;-85
2023/03/11 14:08:01;;;;;;;;;;;;;;;;;;;;;
2023/03/11 14:11:26;;;;;;;1.90;0.90;;;9.10;49.20;;;;;;4767811;29;20462;-86
2023/03/11 14:35:04;;;;;;;2.07;1.00;;;8.60;50.00;;;;;;4912803;29;20487;-86
2023/03/11 15:13:33;;;;;;;3.03;1.40;;;9.10;50.80;;;;;;4971173;23;20473;-85
2023/03/11 15:50:18;;;;;;;2.57;1.60;;;8.70;53.30;;;;;;3086999;26;20565;-86
2023/03/11 15:53:26;;;;;;;1.40;1.30;;;8.70;52.90;;;;;;4928791;29;20452;-86
2023/03/11 15:59:45;;;;;;;4.17;2.10;;;9.10;52.60;;;;;;4915199;29;21373;-84
2023/03/11 16:02:53;;;;;;;3.30;1.77;;;8.90;51.70;;;;;;4940574;29;20539;-86
2023/03/11 16:06:04;;;;;;;2.00;1.43;;;8.70;52.10;;;;;;4835495;29;20566;-87
2023/03/11 16:09:00;;;;;;;2.07;1.50;;;9.20;51.50;;;;;;4843530;29;20510;-87
2023/03/11 16:12:05;;;;;;;5.37;2.00;;;9.00;51.10;;;;;;4831047;29;20454;-86
2023/03/11 16:14:58;;;;;;;2.03;1.50;;;8.80;51.40;;;;;;4837717;29;20463;-84
2023/03/11 16:39:27;;;;;;;3.20;1.87;;;9.00;51.30;;;;;;4966498;23;20500;-84
2023/03/11 16:45:17;;;;;;;2.80;1.40;;;8.90;50.40;;;;;;5422525;23;20572;-85
2023/03/11 16:48:58;;;;;;;;;;;;;;;;;;;;;
2023/03/11 16:51:39;;;;;;;1.40;1.30;;;8.60;50.80;;;;;;4940055;29;20474;-85
2023/03/11 16:54:35;;;;;;;4.63;1.27;;;8.40;51.20;;;;;;4945778;29;20466;-87
2023/03/11 16:57:54;;;;;;;;;;;;;;;;;;;;;
2023/03/11 17:00:35;;;;;;;2.47;1.30;;;8.40;51.80;;;;;;4950054;29;20473;-84
2023/03/11 17:03:47;;;;;;;;;;;;;;;;;;;;;
2023/03/11 17:09:25;;;;;;;2.47;1.60;;;8.20;52.30;;;;;;4940832;29;20477;-85
2023/03/11 17:12:04;;;;;;;5.00;1.90;;;8.00;52.70;;;;;;4957169;29;20442;-86
2023/03/11 17:14:35;;;;;;;1.97;1.77;;;8.00;53.10;;;;;;4942992;29;20478;-86
2023/03/11 17:17:13;;;;;;;3.30;1.83;;;8.00;53.00;;;;;;4940750;29;20473;-85
2023/03/11 17:19:43;;;;;;;2.37;1.57;;;7.80;53.40;;;;;;4958606;29;20485;-86
2023/03/11 17:22:27;;;;;;;3.23;1.77;;;7.60;53.90;;;;;;4955067;29;20532;-85
2023/03/11 17:24:58;;;;;;;4.33;1.80;;;7.60;54.10;;;;;;4944906;29;20433;-87
2023/03/11 17:27:37;;;;;;;2.10;1.60;;;7.60;54.30;;;;;;4956319;29;20469;-84
2023/03/11 17:30:16;;;;;;;3.33;2.13;;;7.60;54.70;;;;;;4957829;29;20454;-86
2023/03/11 17:33:04;;;;;;;1.40;1.30;;;7.60;55.00;;;;;;4946221;29;20458;-87
2023/03/11 17:43:59;;;;;;;2.37;1.93;;;7.60;55.00;;;;;;4944060;28;20525;-87
2023/03/11 17:46:39;;;;;;;18.53;17.07;;;8.00;53.60;;;;;;4943996;29;20457;-86
2023/03/11 17:49:21;;;;;;;3.20;1.97;;;7.90;53.10;;;;;;4910800;29;20515;-84
2023/03/11 17:51:54;;;;;;;6.63;1.60;;;7.70;53.70;;;;;;4910429;29;20473;-86
2023/03/11 17:54:48;;;;;;;8.20;1.63;;;7.60;54.20;;;;;;4925845;29;20451;-86
2023/03/11 17:57:39;;;;;;;4.33;1.77;;;7.60;54.50;;;;;;4938527;23;20505;-86
2023/03/11 18:00:13;;;;;;;4.13;1.90;;;7.60;55.10;;;;;;4933986;29;20458;-88
2023/03/11 18:03:01;;;;;;;2.97;2.40;;;7.90;54.60;;;;;;5011014;23;20491;-85
2023/03/11 18:05:59;;;;;;;1.93;1.70;;;8.00;54.40;;;;;;5111602;23;20507;-86
2023/03/11 18:08:30;;;;;;;2.27;1.83;;;8.10;54.00;;;;;;5116923;23;20503;-87
2023/03/11 18:11:02;;;;;;;4.43;2.00;;;7.90;53.90;;;;;;4966604;28;20754;-86
2023/03/11 18:13:42;;;;;;;4.70;2.20;;;7.90;53.80;;;;;;5366814;23;21016;-86
2023/03/11 18:16:33;;;;;;;4.20;1.50;;;7.80;54.00;;;;;;4982090;28;20532;-87
2023/03/11 18:19:03;;;;;;;4.17;1.80;;;7.60;54.50;;;;;;4981673;28;20847;-84
2023/03/11 18:21:54;;;;;;;4.53;1.70;;;7.40;55.40;;;;;;4973227;28;20433;-86
2023/03/11 18:27:23;;;;;;;2.03;1.90;;;7.50;56.40;;;;;;4967538;23;20486;-85
2023/03/11 18:30:01;;;;;;;5.47;2.57;;;7.50;56.90;;;;;;4940145;29;20465;-87
2023/03/11 18:32:43;;;;;;;4.10;2.17;;;7.50;58.30;;;;;;4940877;29;20576;-85
2023/03/11 18:35:16;;;;;;;3.63;2.30;;;7.50;58.20;;;;;;4935488;29;20504;-85
2023/03/11 18:37:57;;;;;;;6.37;3.37;;;7.50;57.70;;;;;;4956357;29;20472;-87
2023/03/11 18:40:40;;;;;;;3.87;2.37;;;7.50;58.00;;;;;;4935587;29;20454;-87
2023/03/11 18:43:14;;;;;;;5.73;2.97;;;7.60;58.50;;;;;;4935959;29;20509;-86
2023/03/11 18:46:02;;;;;;;6.83;2.80;;;7.50;58.50;;;;;;4938853;29;20480;-86
2023/03/11 18:48:56;;;;;;;2.63;2.43;;;7.50;58.70;;;;;;4899004;29;20527;-86
2023/03/11 18:51:34;;;;;;;3.57;2.13;;;7.30;58.50;;;;;;4918199;29;20454;-87
2023/03/11 18:54:18;;;;;;;3.90;2.77;;;7.20;58.70;;;;;;4901201;29;20462;-83
2023/03/11 18:56:54;;;;;;;5.10;3.27;;;7.10;59.20;;;;;;4899798;29;20463;-86
2023/03/11 18:59:26;;;;;;;4.27;2.77;;;7.10;59.80;;;;;;4898568;29;20454;-86
2023/03/11 19:01:56;;;;;;;3.83;2.70;;;7.20;60.30;;;;;;4896033;29;20482;-85
2023/03/11 19:04:39;;;;;;;7.80;2.77;;;7.10;60.30;;;;;;4910515;29;20475;-84
2023/03/11 19:07:22;;;;;;;4.20;2.80;;;6.90;60.80;;;;;;4888885;29;20487;-84
2023/03/11 19:09:56;;;;;;;6.63;2.97;;;6.90;62.10;;;;;;4891512;29;20460;-85
2023/03/11 19:12:32;;;;;;;13.60;7.87;;;6.90;63.00;;;;;;4891659;29;20619;-86
2023/03/11 19:15:07;;;;;;;3.37;2.60;;;6.80;62.90;;;;;;4894142;29;20710;-84
2023/03/11 19:17:34;;;;;;;3.00;2.20;;;6.80;63.50;;;;;;4896733;29;20491;-84
2023/03/11 19:20:13;;;;;;;10.30;3.90;;;6.80;63.60;;;;;;4926839;29;20462;-85
2023/03/11 19:22:44;;;;;;;5.23;2.37;;;6.80;62.10;;;;;;4929294;29;20450;-87
2023/03/11 19:25:14;;;;;;;3.10;2.60;;;6.80;62.20;;;;;;4931589;29;20546;-84
2023/03/11 19:33:51;;;;;;;5.80;4.00;;;6.70;64.60;;;;;;5521285;23;20496;-83
2023/03/11 19:36:29;;;;;;;7.87;4.30;;;6.70;65.60;;;;;;4965051;28;20465;-83
2023/03/11 19:39:04;;;;;;;6.03;3.97;;;6.70;67.10;;;;;;4964289;28;21820;-85
2023/03/11 19:41:38;;;;;;;6.20;4.43;;;6.70;67.70;;;;;;4964821;28;20548;-83
2023/03/11 19:44:18;;;;;;;4.57;3.77;;;6.70;68.30;;;;;;4964583;28;20536;-85
2023/03/11 19:46:45;;;;;;;10.10;4.13;;;6.70;68.70;;;;;;4978474;28;20560;-84
2023/03/11 19:49:25;;;;;;;6.27;4.10;;;6.60;68.80;;;;;;4980434;28;20480;-84
2023/03/11 19:52:08;;;;;;;6.37;4.27;;;6.60;69.20;;;;;;4977984;28;20513;-83
2023/03/11 19:54:36;;;;;;;6.73;4.37;;;6.70;69.50;;;;;;4963802;28;21027;-83
2023/03/11 19:57:12;;;;;;;6.27;4.00;;;6.60;69.90;;;;;;4962986;28;20475;-85
2023/03/11 20:02:27;;;;;;;3.97;3.30;;;6.60;71.20;;;;;;5090720;23;20494;-83
2023/03/11 20:08:21;;;;;;;9.90;5.90;;;6.80;72.30;;;;;;5214340;23;20511;-85
2023/03/11 20:11:22;;;;;;;;;;;;;;;;;;;;;
2023/03/11 20:13:55;;;;;;;5.27;4.70;;;7.00;72.00;;;;;;5060809;23;20997;-85
2023/03/11 20:19:35;;;;;;;7.20;5.50;;;7.00;72.10;;;;;;4980475;23;20516;-83
2023/03/11 20:22:06;;;;;;;6.57;4.80;;;7.00;72.00;;;;;;5123473;23;20527;-86
2023/03/11 20:24:36;;;;;;;10.70;4.80;;;6.80;70.10;;;;;;4974020;28;20435;-85
2023/03/11 20:27:08;;;;;;;5.93;4.70;;;6.80;70.40;;;;;;4956573;28;20488;-86
2023/03/11 20:29:41;;;;;;;8.00;5.23;;;6.70;70.80;;;;;;4954124;28;20519;-85
2023/03/11 20:32:22;;;;;;;10.17;5.27;;;6.70;70.70;;;;;;4948998;28;20445;-83
2023/03/11 20:34:53;;;;;;;6.60;5.10;;;6.70;70.60;;;;;;4951784;28;20449;-85
2023/03/11 20:37:25;;;;;;;5.87;5.27;;;6.80;70.40;;;;;;5077647;23;20536;-85
2023/03/11 20:39:58;;;;;;;7.60;5.50;;;6.70;70.00;;;;;;4948520;29;20450;-85
2023/03/11 20:42:30;;;;;;;8.10;6.27;;;6.50;69.90;;;;;;5072462;23;20515;-83
2023/03/11 20:45:12;;;;;;;10.60;5.40;;;6.50;73.00;;;;;;5064194;23;20421;-83
2023/03/11 20:47:44;;;;;;;7.20;5.23;;;6.50;73.00;;;;;;4975279;23;20500;-83
2023/03/11 20:50:35;;;;;;;9.03;6.03;;;6.30;74.20;;;;;;4959441;28;20468;-85
2023/03/11 20:53:16;;;;;;;9.00;5.97;;;6.40;75.90;;;;;;4952851;28;20503;-84
2023/03/11 20:55:52;;;;;;;7.77;6.00;;;6.30;76.50;;;;;;4948347;28;20524;-84
2023/03/11 20:58:37;;;;;;;7.30;6.47;;;6.30;76.50;;;;;;4954392;28;20468;-84
2023/03/11 21:01:20;;;;;;;7.67;6.10;;;6.20;75.80;;;;;;4941459;28;20472;-85
2023/03/11 21:04:04;;;;;;;6.83;5.40;;;6.10;73.80;;;;;;4954240;28;20543;-82
2023/03/11 21:06:38;;;;;;;8.43;5.47;;;6.10;73.10;;;;;;4940797;28;20492;-82
2023/03/11 21:09:13;;;;;;;7.23;5.57;;;6.00;72.90;;;;;;4947228;28;20590;-82
2023/03/11 21:12:10;;;;;;;8.90;6.07;;;5.80;73.20;;;;;;4961627;28;20461;-82
2023/03/11 21:17:10;;;;;;;11.77;6.53;;;6.00;75.80;;;;;;4967108;28;20467;-83
2023/03/11 21:19:42;;;;;;;12.90;7.20;;;6.10;75.90;;;;;;4969182;28;20458;-85
2023/03/11 21:24:55;;;;;;;7.57;5.90;;;5.70;76.00;;;;;;5186427;23;20503;-85
2023/03/11 21:27:25;;;;;;;8.67;5.57;;;5.60;77.00;;;;;;4954464;28;20483;-83
2023/03/11 21:29:54;;;;;;;9.47;6.70;;;5.40;78.00;;;;;;4970225;28;20456;-82
2023/03/11 21:32:32;;;;;;;9.40;6.80;;;5.30;79.10;;;;;;4953283;28;20452;-83
2023/03/11 21:35:19;;;;;;;10.70;7.47;;;5.10;80.40;;;;;;4913421;29;20490;-85
2023/03/11 21:38:07;;;;;;;9.10;6.83;;;5.00;81.70;;;;;;4933290;29;20486;-83
2023/03/11 21:41:15;;;;;;;13.10;7.53;;;4.90;82.70;;;;;;4912253;29;20491;-84
2023/03/11 21:43:46;;;;;;;10.77;6.70;;;5.00;83.50;;;;;;4922366;29;20483;-84
2023/03/11 21:46:33;;;;;;;13.23;8.20;;;5.00;83.50;;;;;;4907935;29;20482;-85
2023/03/11 21:49:15;;;;;;;11.43;7.43;;;5.00;83.90;;;;;;4910114;29;21552;-83
2023/03/11 21:51:45;;;;;;;17.87;8.90;;;4.90;84.60;;;;;;4908756;29;20459;-85
2023/03/11 21:54:33;;;;;;;13.53;9.13;;;5.00;85.30;;;;;;4909116;29;20468;-85
2023/03/11 21:57:10;;;;;;;14.47;7.33;;;5.00;85.60;;;;;;4909474;29;20638;-84
2023/03/11 21:59:49;;;;;;;8.87;6.67;;;5.00;85.70;;;;;;5076935;23;20478;-84
2023/03/11 22:02:19;;;;;;;7.87;6.53;;;5.00;85.00;;;;;;4984462;28;20476;-84
2023/03/11 22:05:27;;;;;;;11.30;7.23;;;5.00;85.20;;;;;;4969803;28;20464;-83
2023/03/11 22:08:00;;;;;;;9.20;6.83;;;4.90;86.10;;;;;;4974064;28;20579;-83
2023/03/11 22:10:47;;;;;;;9.60;6.90;;;4.90;86.30;;;;;;4988145;28;20463;-84
2023/03/11 22:13:17;;;;;;;12.83;6.70;;;4.90;86.00;;;;;;4985102;28;20436;-83